KUKT/UKT METAR and TAF weather

Enter ICAO airport designator
Station Type Date Time Source
KUKT METAR 2019/06/27 08:15 UTC NOAA

KUKT 270815Z AUTO 00000KT 5SM BR SCT080 20/19 A3012 RMK A01


Station Type Date Time Source
KUKT Decoded METAR 2019/06/27 08:15 UTC NOAA

Quakertown, Quakertown Airport, PA, United States (KUKT) 40-26-06N 075-22-54W
Jun 27, 2019 - 04:15 AM EDT / 2019.06.27 0815 UTC
Wind: Calm:0
Visibility: 5 mile(s):0
Sky conditions: partly cloudy
Weather: mist
Temperature: 68 F (20 C)
Dew Point: 66 F (19 C)
Relative Humidity: 93%
Pressure (altimeter): 30.12 in. Hg (1019 hPa)
ob: KUKT 270815Z AUTO 00000KT 5SM BR SCT080 20/19 A3012 RMK A01
cycle: 8

Station Type Date Time Source
KUKT TAF UTC NOAA

Error!

Example: see airport list